createdAt,value
2023-04-03T00:01:05.234Z,9.55
2023-04-03T00:03:33.281Z,9.57
2023-04-03T00:06:02.633Z,9.53
2023-04-03T00:08:31.963Z,9.54
2023-04-03T00:10:59.940Z,9.61
2023-04-03T00:13:27.888Z,9.63
2023-04-03T00:15:55.848Z,9.59
2023-04-03T00:18:23.809Z,9.55
2023-04-03T00:20:51.772Z,9.49
2023-04-03T00:23:21.136Z,9.46
2023-04-03T00:25:49.060Z,9.40
2023-04-03T00:28:17.021Z,9.38
2023-04-03T00:30:44.953Z,9.37
2023-04-03T00:33:13.984Z,9.28
2023-04-03T00:35:42.084Z,9.36
2023-04-03T00:38:10.106Z,9.24
2023-04-03T00:40:40.314Z,9.23
2023-04-03T00:43:13.017Z,9.22
2023-04-03T00:45:41.497Z,9.24
2023-04-03T00:48:11.104Z,9.25
2023-04-03T00:50:40.087Z,9.20
2023-04-03T00:53:08.455Z,9.15
2023-04-03T00:55:36.513Z,9.11
2023-04-03T00:58:06.060Z,9.20
2023-04-03T01:00:34.034Z,9.15
2023-04-03T01:03:02.353Z,9.15
2023-04-03T01:05:30.455Z,9.08
2023-04-03T01:07:58.417Z,9.11
2023-04-03T01:10:26.990Z,9.06
2023-04-03T01:12:54.959Z,9.04
2023-04-03T01:15:25.261Z,8.98
2023-04-03T01:17:53.629Z,8.93
2023-04-03T01:21:07.969Z,8.84
2023-04-03T01:23:42.928Z,8.82
2023-04-03T01:26:12.733Z,8.76
2023-04-03T01:28:40.701Z,8.74
2023-04-03T01:31:15.968Z,8.71
2023-04-03T01:33:45.308Z,8.68
2023-04-03T01:36:19.839Z,8.64
2023-04-03T01:38:47.766Z,8.59
2023-04-03T01:41:16.596Z,8.55
2023-04-03T01:43:44.629Z,8.51
2023-04-03T01:46:12.625Z,8.51
2023-04-03T01:48:40.733Z,8.49
2023-04-03T01:51:10.036Z,8.43
2023-04-03T01:53:38.036Z,8.44
2023-04-03T01:56:06.431Z,8.44
2023-04-03T01:58:34.400Z,8.41
2023-04-03T02:01:02.697Z,8.39
2023-04-03T02:03:30.732Z,8.38
2023-04-03T02:05:58.677Z,8.34
2023-04-03T02:08:28.020Z,8.29
2023-04-03T02:10:55.936Z,8.30
2023-04-03T02:13:23.880Z,8.25
2023-04-03T02:15:51.791Z,8.26
2023-04-03T02:18:19.759Z,8.27
2023-04-03T02:20:48.708Z,8.24
2023-04-03T02:23:16.657Z,8.22
2023-04-03T02:25:46.294Z,8.23
2023-04-03T02:28:14.275Z,8.20
2023-04-03T02:30:42.233Z,8.18
2023-04-03T02:33:10.198Z,8.18
2023-04-03T02:35:38.206Z,8.19
2023-04-03T02:38:06.161Z,8.15
2023-04-03T02:40:34.177Z,8.11
2023-04-03T02:43:03.827Z,8.03
2023-04-03T02:45:31.751Z,8.01
2023-04-03T02:47:59.698Z,8.05
2023-04-03T02:50:27.686Z,8.07
2023-04-03T02:52:56.253Z,8.07
2023-04-03T02:55:24.229Z,8.05
2023-04-03T02:57:52.202Z,7.80
2023-04-03T03:00:22.533Z,8.03
2023-04-03T03:02:51.121Z,8.02
2023-04-03T03:05:19.388Z,7.99
2023-04-03T03:07:47.437Z,7.94
2023-04-03T03:10:15.679Z,7.89
2023-04-03T03:12:43.601Z,7.90
2023-04-03T03:15:12.435Z,7.91
2023-04-03T03:17:41.905Z,7.93
2023-04-03T03:20:10.688Z,7.91
2023-04-03T03:22:38.669Z,7.82
2023-04-03T03:25:07.231Z,7.82
2023-04-03T03:27:35.737Z,7.78
2023-04-03T03:30:03.739Z,7.75
2023-04-03T03:32:31.733Z,7.71
2023-04-03T03:35:01.169Z,7.67
2023-04-03T03:37:29.175Z,7.60
2023-04-03T03:39:57.137Z,7.55
2023-04-03T03:42:25.216Z,7.52
2023-04-03T03:44:53.168Z,7.45
2023-04-03T03:47:21.326Z,7.41
2023-04-03T03:49:49.261Z,7.41
2023-04-03T03:52:18.631Z,7.39
2023-04-03T03:54:46.579Z,7.40
2023-04-03T03:57:14.648Z,7.38
2023-04-03T03:59:42.942Z,7.38
2023-04-03T04:02:11.026Z,7.41
2023-04-03T04:04:39.050Z,7.48
2023-04-03T04:07:07.018Z,7.51
2023-04-03T04:09:36.344Z,7.55
2023-04-03T04:12:04.443Z,7.60
2023-04-03T04:14:32.406Z,7.65
2023-04-03T04:17:00.327Z,7.68
2023-04-03T04:19:28.305Z,7.74
2023-04-03T04:21:56.299Z,7.83
2023-04-03T04:24:24.680Z,7.89
2023-04-03T04:26:54.070Z,7.96
2023-04-03T04:29:22.030Z,8.04
2023-04-03T04:31:49.999Z,8.13
2023-04-03T04:34:17.930Z,8.23
2023-04-03T04:36:45.968Z,8.37
2023-04-03T04:39:14.044Z,8.53
2023-04-03T04:41:41.999Z,8.72
2023-04-03T04:44:11.576Z,8.96
2023-04-03T04:46:39.632Z,9.43
2023-04-03T04:49:07.760Z,10.24
2023-04-03T04:51:48.257Z,11.25
2023-04-03T04:54:19.479Z,12.19
2023-04-03T04:56:47.436Z,13.18
2023-04-03T04:59:16.772Z,14.12
2023-04-03T05:01:44.809Z,14.79
2023-04-03T05:04:13.789Z,15.21
2023-04-03T05:06:42.205Z,15.77
2023-04-03T05:09:10.999Z,16.42
2023-04-03T05:11:38.987Z,17.08
2023-04-03T05:14:07.674Z,17.51
2023-04-03T05:16:37.297Z,17.75
2023-04-03T05:19:05.276Z,17.62
2023-04-03T05:21:33.620Z,17.50
2023-04-03T05:24:03.698Z,17.36
2023-04-03T05:26:31.782Z,17.16
2023-04-03T05:28:59.803Z,17.06
2023-04-03T05:31:30.363Z,17.20
2023-04-03T05:33:59.833Z,16.85
2023-04-03T05:36:28.077Z,16.11
2023-04-03T05:38:57.362Z,15.90
2023-04-03T05:41:25.930Z,15.55
2023-04-03T05:43:53.836Z,15.44
2023-04-03T05:46:22.483Z,15.35
2023-04-03T05:48:50.990Z,15.23
2023-04-03T05:51:20.888Z,15.69
2023-04-03T05:53:48.809Z,16.10
2023-04-03T05:56:16.740Z,16.64
2023-04-03T05:58:44.720Z,16.88
2023-04-03T06:01:12.778Z,16.77
2023-04-03T06:03:41.803Z,16.73
2023-04-03T06:06:10.114Z,16.84
2023-04-03T06:08:39.498Z,17.11
2023-04-03T06:11:09.696Z,17.11
2023-04-03T06:13:38.315Z,17.10
2023-04-03T06:16:07.154Z,16.99
2023-04-03T06:18:35.110Z,17.21
2023-04-03T06:21:03.900Z,17.30
2023-04-03T06:23:31.878Z,17.45
2023-04-03T06:26:01.580Z,17.48
2023-04-03T06:28:29.562Z,17.54
2023-04-03T06:30:57.597Z,17.48
2023-04-03T06:33:25.571Z,17.42
2023-04-03T06:35:58.364Z,17.31
2023-04-03T06:38:26.512Z,17.10
2023-04-03T06:40:55.030Z,17.16
2023-04-03T06:43:24.649Z,17.29
2023-04-03T06:45:52.716Z,17.51
2023-04-03T06:48:20.797Z,17.75
2023-04-03T06:50:48.729Z,17.98
2023-04-03T06:53:16.840Z,18.13
2023-04-03T06:55:44.777Z,18.14
2023-04-03T06:58:12.782Z,18.08
2023-04-03T07:00:42.161Z,18.06
2023-04-03T07:03:10.147Z,18.09
2023-04-03T07:05:38.375Z,18.08
2023-04-03T07:08:06.683Z,18.16
2023-04-03T07:10:34.602Z,18.46
2023-04-03T07:13:02.839Z,18.50
2023-04-03T07:15:30.886Z,18.72
2023-04-03T07:18:00.311Z,18.87
2023-04-03T07:20:28.369Z,19.17
2023-04-03T07:22:56.316Z,19.32
2023-04-03T07:25:24.295Z,19.40
2023-04-03T07:27:52.228Z,19.57
2023-04-03T07:30:20.399Z,19.55
2023-04-03T07:32:48.402Z,19.45
2023-04-03T07:35:18.438Z,19.28
2023-04-03T07:37:47.282Z,19.62
2023-04-03T07:40:15.722Z,20.17
2023-04-03T07:42:43.695Z,20.52
2023-04-03T07:45:12.630Z,20.22
2023-04-03T07:47:40.564Z,20.02
2023-04-03T07:50:10.031Z,19.73
2023-04-03T07:52:39.345Z,19.85
2023-04-03T07:55:08.019Z,20.12
2023-04-03T07:57:36.215Z,20.24
2023-04-03T08:00:05.742Z,20.29
2023-04-03T08:02:34.018Z,20.25
2023-04-03T08:05:02.167Z,20.24
2023-04-03T08:07:30.379Z,20.37
2023-04-03T08:09:59.769Z,20.51
2023-04-03T08:12:29.574Z,20.52
2023-04-03T08:14:57.798Z,20.64
2023-04-03T08:17:27.334Z,20.37
2023-04-03T08:19:55.492Z,20.70
2023-04-03T08:22:23.404Z,20.78
2023-04-03T08:24:58.614Z,20.95
2023-04-03T08:27:29.572Z,21.01
2023-04-03T08:29:58.010Z,21.15
2023-04-03T08:32:26.710Z,20.93
2023-04-03T08:34:54.746Z,20.99
2023-04-03T08:37:22.718Z,20.61
2023-04-03T08:39:51.102Z,20.45
2023-04-03T08:42:22.609Z,20.18
2023-04-03T08:44:54.831Z,20.38
2023-04-03T08:47:26.322Z,20.17
2023-04-03T08:49:55.500Z,20.10
2023-04-03T08:52:26.794Z,20.46
2023-04-03T08:54:56.308Z,20.74
2023-04-03T08:57:30.551Z,20.62
2023-04-03T09:00:03.134Z,20.71
2023-04-03T09:02:33.639Z,20.66
2023-04-03T09:05:01.637Z,20.86
2023-04-03T09:07:35.493Z,20.97
2023-04-03T09:10:04.188Z,21.26
2023-04-03T09:12:36.169Z,21.25
2023-04-03T09:15:12.240Z,21.57
2023-04-03T09:17:44.603Z,21.64
2023-04-03T09:20:20.945Z,21.44
2023-04-03T09:22:52.266Z,21.23
2023-04-03T09:25:22.452Z,21.24
2023-04-03T09:27:52.261Z,21.02
2023-04-03T09:30:22.614Z,21.19
2023-04-03T09:32:51.976Z,21.45
2023-04-03T09:35:27.365Z,21.83
2023-04-03T09:38:01.276Z,21.86
2023-04-03T09:40:37.347Z,22.11
2023-04-03T09:43:24.339Z,21.74
2023-04-03T09:45:53.944Z,21.97
2023-04-03T09:48:22.537Z,21.90
2023-04-03T09:51:00.173Z,22.10
2023-04-03T09:53:33.572Z,22.49
2023-04-03T09:56:01.654Z,22.69
2023-04-03T09:58:42.805Z,23.33
2023-04-03T10:01:26.169Z,23.17
2023-04-03T10:04:09.074Z,23.17
2023-04-03T10:06:37.914Z,23.19
2023-04-03T10:09:22.569Z,23.27
2023-04-03T10:12:01.119Z,23.38
2023-04-03T10:14:29.307Z,23.16
2023-04-03T10:17:01.919Z,23.08
2023-04-03T10:19:36.720Z,23.23
2023-04-03T10:22:06.629Z,23.36
2023-04-03T10:24:38.698Z,23.22
2023-04-03T10:27:08.811Z,23.23
2023-04-03T10:29:40.726Z,23.11
2023-04-03T10:32:20.289Z,23.32
2023-04-03T10:35:02.358Z,23.09
2023-04-03T10:37:37.722Z,23.22
2023-04-03T10:40:22.870Z,22.92
2023-04-03T10:42:52.704Z,23.35
2023-04-03T10:45:23.282Z,23.82
2023-04-03T10:47:58.990Z,23.88
2023-04-03T10:50:34.167Z,23.34
2023-04-03T10:53:07.078Z,22.94
2023-04-03T10:55:38.347Z,22.32
2023-04-03T10:58:07.065Z,22.09
2023-04-03T11:00:39.398Z,22.26
2023-04-03T11:03:11.395Z,21.88
2023-04-03T11:05:41.808Z,21.81
2023-04-03T11:08:13.158Z,21.27
2023-04-03T11:10:43.418Z,21.34
2023-04-03T11:13:14.484Z,21.03
2023-04-03T11:15:42.450Z,20.70
2023-04-03T11:18:13.391Z,20.63
2023-04-03T11:20:41.364Z,20.59
2023-04-03T11:23:15.215Z,20.68
2023-04-03T11:25:45.567Z,20.31
2023-04-03T11:28:14.683Z,20.58
2023-04-03T11:30:46.750Z,20.78
2023-04-03T11:33:28.126Z,20.93
2023-04-03T11:35:58.167Z,20.89
2023-04-03T11:38:27.570Z,20.92
2023-04-03T11:40:56.265Z,21.16
2023-04-03T11:43:26.897Z,21.14
2023-04-03T11:46:00.226Z,21.38
2023-04-03T11:48:49.826Z,21.39
2023-04-03T11:51:43.423Z,21.35
2023-04-03T11:54:53.728Z,21.48
2023-04-03T11:57:48.020Z,21.40
2023-04-03T12:00:53.787Z,21.27
2023-04-03T12:04:03.396Z,20.99
2023-04-03T12:07:21.970Z,20.56
2023-04-03T12:10:30.928Z,20.28
2023-04-03T12:13:03.494Z,19.59
2023-04-03T12:15:55.322Z,19.44
2023-04-03T12:18:44.812Z,19.31
2023-04-03T12:21:13.488Z,19.18
2023-04-03T12:24:01.504Z,19.11
2023-04-03T12:26:42.122Z,18.98
2023-04-03T12:29:18.458Z,18.83
2023-04-03T12:31:50.508Z,18.70
2023-04-03T12:34:28.007Z,19.07
2023-04-03T12:37:01.716Z,19.21
2023-04-03T12:39:58.015Z,19.41
2023-04-03T12:42:35.198Z,19.49
2023-04-03T12:45:04.897Z,19.71
2023-04-03T12:47:37.131Z,19.54
2023-04-03T12:50:05.792Z,19.51
2023-04-03T12:52:37.566Z,19.59
2023-04-03T12:55:06.728Z,19.65
2023-04-03T12:57:36.387Z,19.55
2023-04-03T13:00:39.974Z,19.33
2023-04-03T13:03:08.476Z,18.89
2023-04-03T13:05:37.427Z,18.95
2023-04-03T13:08:06.780Z,18.93
2023-04-03T13:10:34.802Z,18.80
2023-04-03T13:13:10.918Z,18.62
2023-04-03T13:15:43.615Z,18.50
2023-04-03T13:18:24.376Z,18.47
2023-04-03T13:20:52.339Z,18.30
2023-04-03T13:23:21.644Z,18.19
2023-04-03T13:25:49.761Z,18.08
2023-04-03T13:28:21.542Z,17.68
2023-04-03T13:31:04.445Z,17.34
2023-04-03T13:33:33.900Z,17.32
2023-04-03T13:36:04.759Z,17.04
2023-04-03T13:38:34.769Z,16.42
2023-04-03T13:41:05.435Z,15.88
2023-04-03T13:43:35.839Z,15.66
2023-04-03T13:46:07.568Z,15.38
2023-04-03T13:48:40.490Z,15.19
2023-04-03T13:51:18.047Z,14.98
2023-04-03T13:53:46.983Z,14.95
2023-04-03T13:56:21.742Z,14.88
2023-04-03T13:58:59.590Z,14.84
2023-04-03T14:01:27.744Z,14.85
2023-04-03T14:03:57.479Z,14.79
2023-04-03T14:06:25.722Z,14.76
2023-04-03T14:08:53.820Z,14.76
2023-04-03T14:11:23.414Z,14.66
2023-04-03T14:13:51.770Z,14.76
2023-04-03T14:16:22.884Z,14.76
2023-04-03T14:18:52.390Z,14.74
2023-04-03T14:21:20.921Z,14.72
2023-04-03T14:23:48.953Z,14.71
2023-04-03T14:26:18.757Z,14.62
2023-04-03T14:28:47.498Z,14.63
2023-04-03T14:31:15.928Z,14.55
2023-04-03T14:33:45.736Z,14.51
2023-04-03T14:36:15.217Z,14.43
2023-04-03T14:38:43.592Z,14.44
2023-04-03T14:41:16.669Z,14.23
2023-04-03T14:43:45.769Z,14.12
2023-04-03T14:46:15.280Z,14.18
2023-04-03T14:48:43.481Z,14.19
2023-04-03T14:51:14.338Z,14.09
2023-04-03T14:53:43.027Z,14.05
2023-04-03T14:56:14.849Z,13.91
2023-04-03T14:58:42.818Z,13.76
2023-04-03T15:01:12.875Z,13.60
2023-04-03T15:03:41.033Z,13.50
2023-04-03T15:06:11.119Z,13.47
2023-04-03T15:08:42.117Z,13.40
2023-04-03T15:11:10.599Z,13.47
2023-04-03T15:13:38.636Z,13.47
2023-04-03T15:16:06.820Z,13.50
2023-04-03T15:18:38.646Z,13.52
2023-04-03T15:21:06.671Z,13.55
2023-04-03T15:23:34.668Z,13.51
2023-04-03T15:26:04.070Z,13.50
2023-04-03T15:28:33.232Z,13.33
2023-04-03T15:31:01.226Z,13.29
2023-04-03T15:33:29.824Z,13.34
2023-04-03T15:36:06.596Z,13.34
2023-04-03T15:38:35.487Z,13.32
2023-04-03T15:41:04.876Z,13.25
2023-04-03T15:43:34.762Z,13.22
2023-04-03T15:46:02.775Z,13.24
2023-04-03T15:48:30.867Z,13.21
2023-04-03T15:50:59.356Z,13.18
2023-04-03T15:53:27.446Z,13.12
2023-04-03T15:55:55.422Z,13.11
2023-04-03T15:58:24.866Z,13.07
2023-04-03T16:00:52.881Z,13.10
2023-04-03T16:03:21.773Z,12.99
2023-04-03T16:05:50.275Z,12.89
2023-04-03T16:08:18.860Z,12.95
2023-04-03T16:10:47.985Z,12.87
2023-04-03T16:13:16.205Z,12.82
2023-04-03T16:15:45.592Z,12.82
2023-04-03T16:18:15.005Z,12.88
2023-04-03T16:20:44.724Z,12.81
2023-04-03T16:23:12.736Z,12.83
2023-04-03T16:25:40.934Z,12.85
2023-04-03T16:28:09.176Z,12.79
2023-04-03T16:30:37.146Z,12.87
2023-04-03T16:33:06.591Z,12.86
2023-04-03T16:35:34.693Z,12.91
2023-04-03T16:38:02.680Z,12.83
2023-04-03T16:40:30.664Z,12.86
2023-04-03T16:42:58.664Z,12.85
2023-04-03T16:45:26.634Z,12.89
2023-04-03T16:47:54.706Z,12.88
2023-04-03T16:50:24.165Z,12.84
2023-04-03T16:52:52.153Z,12.86
2023-04-03T16:55:21.666Z,12.89
2023-04-03T16:57:49.640Z,12.89
2023-04-03T17:00:18.338Z,12.87
2023-04-03T17:02:46.460Z,12.87
2023-04-03T17:05:14.506Z,12.82
2023-04-03T17:07:43.963Z,12.76
2023-04-03T17:10:12.053Z,12.74
2023-04-03T17:12:40.047Z,12.71
2023-04-03T17:15:08.976Z,12.63
2023-04-03T17:17:37.000Z,12.63
2023-04-03T17:20:05.515Z,12.64
2023-04-03T17:22:33.776Z,12.55
2023-04-03T17:25:03.199Z,12.49
2023-04-03T17:27:31.265Z,12.51
2023-04-03T17:29:59.875Z,12.49
2023-04-03T17:32:27.946Z,12.43
2023-04-03T17:34:56.162Z,12.38
2023-04-03T17:37:24.161Z,12.39
2023-04-03T17:39:52.141Z,12.40
2023-04-03T17:42:21.541Z,12.39
2023-04-03T17:44:49.541Z,12.29
2023-04-03T17:47:17.520Z,12.24
2023-04-03T17:49:45.469Z,12.17
2023-04-03T17:52:13.424Z,12.15
2023-04-03T17:54:41.504Z,12.14
2023-04-03T17:57:09.509Z,12.05
2023-04-03T17:59:38.886Z,12.06
2023-04-03T18:02:06.841Z,11.98
2023-04-03T18:04:34.837Z,11.92
2023-04-03T18:07:02.821Z,11.91
2023-04-03T18:09:32.183Z,11.89
2023-04-03T18:12:00.284Z,11.90
2023-04-03T18:14:28.370Z,11.86
2023-04-03T18:16:58.857Z,11.82
2023-04-03T18:19:28.425Z,11.73
2023-04-03T18:21:58.395Z,11.59
2023-04-03T18:24:26.454Z,11.60
2023-04-03T18:26:56.832Z,11.55
2023-04-03T18:29:24.831Z,11.60
2023-04-03T18:31:53.686Z,11.62
2023-04-03T18:34:23.126Z,11.52
2023-04-03T18:36:52.424Z,11.47
2023-04-03T18:39:21.095Z,11.38
2023-04-03T18:41:49.691Z,11.41
2023-04-03T18:44:19.558Z,11.35
2023-04-03T18:46:47.574Z,11.27
2023-04-03T18:49:16.717Z,11.22
2023-04-03T18:51:46.444Z,11.16
2023-04-03T18:54:14.471Z,11.12
2023-04-03T18:56:42.473Z,11.13
2023-04-03T18:59:10.526Z,11.03
2023-04-03T19:01:38.672Z,10.99
2023-04-03T19:04:06.693Z,11.00
2023-04-03T19:06:34.690Z,10.90
2023-04-03T19:09:04.984Z,10.97
2023-04-03T19:11:33.016Z,10.88
2023-04-03T19:14:10.420Z,10.86
2023-04-03T19:16:43.708Z,10.88
2023-04-03T19:19:11.777Z,10.92
2023-04-03T19:21:41.469Z,10.84
2023-04-03T19:24:11.267Z,10.90
2023-04-03T19:26:39.294Z,10.93
2023-04-03T19:29:07.245Z,10.87
2023-04-03T19:31:36.836Z,10.84
2023-04-03T19:34:04.926Z,10.82
2023-04-03T19:36:33.023Z,10.90
2023-04-03T19:39:00.991Z,10.87
2023-04-03T19:41:31.640Z,10.90
2023-04-03T19:43:59.627Z,10.88
2023-04-03T19:46:28.165Z,10.88
2023-04-03T19:48:56.161Z,11.03
2023-04-03T19:51:24.147Z,11.01
2023-04-03T19:53:52.092Z,11.03
2023-04-03T19:56:21.298Z,11.03
2023-04-03T19:58:54.149Z,10.97
2023-04-03T20:01:22.917Z,10.98
2023-04-03T20:03:50.915Z,10.95
2023-04-03T20:06:18.906Z,10.99
2023-04-03T20:08:46.833Z,10.95
2023-04-03T20:11:14.780Z,10.99
2023-04-03T20:13:42.730Z,11.05
2023-04-03T20:16:12.463Z,11.10
2023-04-03T20:18:42.419Z,11.11
2023-04-03T20:21:10.841Z,11.08
2023-04-03T20:23:38.895Z,11.00
2023-04-03T20:26:12.027Z,10.90
2023-04-03T20:28:43.529Z,10.81
2023-04-03T20:31:14.215Z,10.86
2023-04-03T20:33:42.851Z,10.85
2023-04-03T20:36:10.866Z,10.75
2023-04-03T20:38:38.826Z,10.80
2023-04-03T20:41:06.798Z,10.82
2023-04-03T20:43:35.345Z,10.77
2023-04-03T20:46:04.451Z,10.73
2023-04-03T20:48:33.774Z,10.65
2023-04-03T20:51:09.682Z,10.68
2023-04-03T20:53:37.702Z,10.68
2023-04-03T20:56:09.040Z,10.62
2023-04-03T20:58:39.007Z,10.63
2023-04-03T21:01:14.577Z,10.60
2023-04-03T21:03:43.969Z,10.58
2023-04-03T21:06:49.736Z,10.60
2023-04-03T21:09:55.785Z,10.69
2023-04-03T21:13:01.450Z,10.62
2023-04-03T21:15:47.375Z,10.73
2023-04-03T21:18:40.414Z,10.69
2023-04-03T21:21:08.396Z,10.73
2023-04-03T21:23:36.340Z,10.69
2023-04-03T21:26:04.261Z,10.75
2023-04-03T21:28:32.632Z,10.72
2023-04-03T21:31:00.585Z,10.79
2023-04-03T21:33:28.555Z,10.75
2023-04-03T21:36:00.012Z,10.74
2023-04-03T21:38:28.257Z,10.73
2023-04-03T21:40:57.773Z,10.78
2023-04-03T21:43:25.788Z,10.85
2023-04-03T21:45:54.719Z,10.84
2023-04-03T21:48:23.353Z,10.92
2023-04-03T21:50:52.584Z,10.81
2023-04-03T21:53:22.604Z,10.82
2023-04-03T21:55:57.367Z,10.88
2023-04-03T21:58:30.601Z,11.05
2023-04-03T22:00:58.862Z,11.26
2023-04-03T22:03:27.319Z,11.27
2023-04-03T22:05:55.422Z,11.36
2023-04-03T22:08:24.807Z,11.42
2023-04-03T22:10:52.978Z,11.41
2023-04-03T22:13:20.948Z,11.39
2023-04-03T22:15:48.937Z,11.40
2023-04-03T22:18:16.863Z,11.40
2023-04-03T22:20:44.889Z,11.41
2023-04-03T22:23:12.847Z,11.39
2023-04-03T22:25:42.143Z,11.32
2023-04-03T22:28:10.064Z,11.38
2023-04-03T22:30:38.711Z,11.38
2023-04-03T22:33:08.058Z,11.46
2023-04-03T22:35:36.435Z,11.41
2023-04-03T22:38:04.411Z,11.40
2023-04-03T22:40:33.686Z,11.38
2023-04-03T22:43:03.029Z,11.32
2023-04-03T22:45:30.934Z,11.16
2023-04-03T22:47:59.007Z,11.09
2023-04-03T22:50:27.051Z,11.14
2023-04-03T22:52:54.988Z,11.22
2023-04-03T22:55:24.533Z,11.27
2023-04-03T22:57:52.480Z,11.39
2023-04-03T23:00:21.868Z,11.40
2023-04-03T23:02:49.801Z,11.40
2023-04-03T23:05:17.834Z,11.40
2023-04-03T23:07:45.849Z,11.45
2023-04-03T23:10:13.783Z,11.44
2023-04-03T23:12:41.814Z,11.43
2023-04-03T23:15:10.323Z,11.39
2023-04-03T23:17:39.713Z,11.41
2023-04-03T23:20:08.615Z,11.43
2023-04-03T23:22:36.537Z,11.45
2023-04-03T23:25:04.603Z,11.46
2023-04-03T23:27:32.524Z,11.34
2023-04-03T23:30:00.608Z,11.21
2023-04-03T23:32:28.566Z,11.07
2023-04-03T23:34:58.273Z,10.91
2023-04-03T23:37:26.238Z,10.86
2023-04-03T23:39:54.142Z,10.81
2023-04-03T23:42:22.092Z,10.76
2023-04-03T23:44:50.047Z,10.66
2023-04-03T23:47:18.018Z,10.60
2023-04-03T23:49:46.028Z,10.65
2023-04-03T23:52:15.328Z,10.50
2023-04-03T23:54:43.309Z,10.51
2023-04-03T23:57:11.229Z,10.52
2023-04-03T23:59:39.151Z,10.47
